Huvudsida
METAR-TAF:

METAR-TAF

Flygplatser :

Cairns International Airport

Cairns, Australien

latitud: 16-53S, longitud: 145-45E, höjd: 3 m

Aktuellt väderrapport

Denna rapport gjordes för 16 minuter sedan, klockan 12:30 UTC
Vind 3 kt från nord
Temperatur 27°C
Fuktighet 89%
Tryck 1008 hPa
Sikt 10 km eller mer
Få moln på en höjd av 2400 ft

METAR: YBCS 121230Z 35003KT 9999 FEW024 27/25 Q1008 NOSIG

Tid: 22:46 (12:46 UTC)

Väderprognos

Denna rapport gjordes för 1 timme och 21 minuter sedan, klockan 11:25 UTC
Prognos gäller från 12 kl. 12 UTC till 13 kl. 12 UTC
Vind 5 kt varierande vindriktning
Sikt 10 km eller mer
Få moln på en höjd av 2500 ft
Från 13 kl. 0100 UTC
Vind 10 kt från nord/nordost
Sikt 10 km eller mer
Få moln på en höjd av 3000 ft
Spridda moln på en höjd av 5500 ft

TAF: YBCS 121125Z 1212/1312 VRB05KT 9999 FEW025 FM130100 02010KT 9999 FEW030 SCT055

Aktuella väderrapporter och prognoser från 4000 flygplatser (METAR- och TAF-rapporter).

De tillgängliga stationerna syns som gula och röda prickar på kartan.

För musen över prickarna för att se namnen på stationerna.

Klicka sedan för att få väderrapporter och prognoser.

För att ändra kartan: Klicka på de gröna knapparna med ett svart kors på för att zooma in; den gröna knappen med ett streck på för att zooma ut; eller på de gröna pilarna för angränsande kartor.


METAR-TAF: